Time;durP1;ratioP1;P1;durP2;ratioP2;P2;SDS_P1;SDS_P2;PMS_P1;PMS_P2;Temp;Humidity;BMP_temperature;BMP_pressure;BME280_temperature;BME280_humidity;BME280_pressure;Samples;Min_cycle;Max_cycle;Signal;HPM_P1;HPM_P2
2023/06/22 00:00:48;;;;;;;;;;;29.10;52.50;;;;;;4882374;29;19919;-89
2023/06/22 00:03:16;;;;;;;;;;;29.10;52.50;;;;;;4883308;29;20103;-89
2023/06/22 00:05:45;;;;;;;;;;;29.10;52.50;;;;;;4879235;29;19943;-90
2023/06/22 00:08:11;;;;;;;;;;;29.00;52.30;;;;;;4883712;29;20196;-90
2023/06/22 00:10:40;;;;;;;;;;;29.00;52.30;;;;;;4883819;29;20185;-90
2023/06/22 00:13:06;;;;;;;;;;;29.10;52.40;;;;;;4887125;29;19911;-89
2023/06/22 00:15:32;;;;;;;;;;;29.00;52.40;;;;;;4893576;29;20170;-90
2023/06/22 00:17:58;;;;;;;;;;;29.00;52.40;;;;;;4883683;29;19926;-90
2023/06/22 00:20:28;;;;;;;;;;;29.00;52.30;;;;;;4900369;29;20264;-90
2023/06/22 00:22:54;;;;;;;;;;;29.00;52.30;;;;;;4883027;29;20041;-90
2023/06/22 00:25:19;;;;;;;;;;;29.00;52.30;;;;;;4885920;29;20263;-90
2023/06/22 00:27:45;;;;;;;;;;;29.00;52.30;;;;;;4892095;29;19918;-90
2023/06/22 00:30:12;;;;;;;;;;;29.00;52.30;;;;;;4884808;29;19926;-90
2023/06/22 00:32:40;;;;;;;;;;;29.00;52.20;;;;;;4885008;29;19912;-90
2023/06/22 00:35:10;;;;;;;;;;;29.00;52.30;;;;;;4899618;29;20472;-90
2023/06/22 00:37:35;;;;;;;;;;;28.90;52.20;;;;;;4894767;29;20022;-90
2023/06/22 00:40:03;;;;;;;;;;;28.90;52.20;;;;;;4883998;29;19919;-89
2023/06/22 00:42:28;;;;;;;;;;;28.90;52.30;;;;;;4878022;29;19923;-90
2023/06/22 00:44:57;;;;;;;;;;;28.90;52.20;;;;;;4893305;29;19912;-90
2023/06/22 00:47:22;;;;;;;;;;;28.90;52.20;;;;;;4892205;29;19907;-90
2023/06/22 00:49:51;;;;;;;;;;;28.90;52.30;;;;;;4898402;29;19911;-90
2023/06/22 00:52:20;;;;;;;;;;;28.90;52.30;;;;;;4886734;29;19916;-90
2023/06/22 00:54:48;;;;;;;;;;;28.80;52.30;;;;;;4885570;29;19911;-90
2023/06/22 00:57:18;;;;;;;;;;;28.80;52.20;;;;;;4885780;29;19912;-90
2023/06/22 00:59:44;;;;;;;;;;;28.80;52.20;;;;;;4877117;29;19979;-89
2023/06/22 01:02:10;;;;;;;;;;;28.80;52.20;;;;;;4883395;29;19912;-90
2023/06/22 01:04:36;;;;;;;;;;;28.80;52.20;;;;;;4894567;29;19922;-90
2023/06/22 01:07:22;;;;;;;;;;;28.90;52.30;;;;;;4884568;29;20335;-90
2023/06/22 01:09:48;;;;;;;;;;;28.80;52.30;;;;;;4893853;29;19912;-89
2023/06/22 01:12:18;;;;;;;;;;;28.80;52.30;;;;;;4897690;29;20435;-90
2023/06/22 01:14:47;;;;;;;;;;;28.80;52.30;;;;;;4886956;29;19957;-90
2023/06/22 01:17:16;;;;;;;;;;;28.80;52.30;;;;;;4882969;29;20203;-90
2023/06/22 01:19:55;;;;;;;;;;;28.70;52.30;;;;;;4887842;29;19912;-90
2023/06/22 01:22:23;;;;;;;;;;;28.70;52.30;;;;;;4907340;29;20295;-90
2023/06/22 01:25:00;;;;;;;;;;;28.70;52.70;;;;;;4880366;29;19911;-90
2023/06/22 01:27:32;;;;;;;;;;;28.70;52.40;;;;;;4879003;29;20245;-90
2023/06/22 01:30:01;;;;;;;;;;;28.70;52.50;;;;;;4878985;29;19922;-90
2023/06/22 01:32:30;;;;;;;;;;;28.70;52.50;;;;;;4875722;29;20293;-90
2023/06/22 01:34:56;;;;;;;;;;;28.60;52.50;;;;;;4880537;29;19954;-90
2023/06/22 01:37:22;;;;;;;;;;;28.60;52.50;;;;;;4888774;29;20038;-90
2023/06/22 01:39:51;;;;;;;;;;;28.60;52.50;;;;;;4872493;29;19972;-90
2023/06/22 01:42:16;;;;;;;;;;;28.60;52.50;;;;;;4882789;29;19954;-90
2023/06/22 01:44:42;;;;;;;;;;;28.60;52.60;;;;;;4873628;29;20183;-89
2023/06/22 01:47:08;;;;;;;;;;;28.60;52.50;;;;;;4896715;29;19911;-90
2023/06/22 01:49:36;;;;;;;;;;;28.60;52.60;;;;;;4890061;29;19911;-90
2023/06/22 01:52:05;;;;;;;;;;;28.60;52.60;;;;;;4888424;29;19970;-90
2023/06/22 01:54:30;;;;;;;;;;;28.60;52.60;;;;;;4892211;29;19916;-90
2023/06/22 01:56:56;;;;;;;;;;;28.60;52.60;;;;;;4882050;29;19915;-90
2023/06/22 01:59:42;;;;;;;;;;;28.60;52.60;;;;;;4885734;29;19971;-90
2023/06/22 02:02:11;;;;;;;;;;;28.60;52.50;;;;;;4884615;29;19912;-89
2023/06/22 02:04:54;;;;;;;;;;;28.60;52.60;;;;;;4897318;29;20277;-90
2023/06/22 02:07:25;;;;;;;;;;;28.60;52.60;;;;;;4885417;29;19915;-90
2023/06/22 02:09:52;;;;;;;;;;;28.60;52.60;;;;;;4885204;29;20177;-90
2023/06/22 02:12:23;;;;;;;;;;;28.60;52.60;;;;;;4885231;29;20013;-90
2023/06/22 02:14:49;;;;;;;;;;;28.60;52.60;;;;;;4881684;29;19912;-90
2023/06/22 02:17:16;;;;;;;;;;;28.60;52.60;;;;;;4879498;29;20394;-90
2023/06/22 02:19:42;;;;;;;;;;;28.50;52.60;;;;;;4883210;29;19959;-90
2023/06/22 02:22:08;;;;;;;;;;;28.60;52.70;;;;;;4894456;29;19949;-90
2023/06/22 02:24:33;;;;;;;;;;;28.50;52.70;;;;;;4883007;29;19919;-90
2023/06/22 02:26:59;;;;;;;;;;;28.50;52.70;;;;;;4884005;29;20006;-90
2023/06/22 02:29:29;;;;;;;;;;;28.50;52.80;;;;;;4878420;29;19999;-90
2023/06/22 02:31:55;;;;;;;;;;;28.50;52.80;;;;;;4873035;29;19927;-90
2023/06/22 02:34:23;;;;;;;;;;;28.50;52.80;;;;;;4897953;29;19907;-89
2023/06/22 02:36:52;;;;;;;;;;;28.50;52.80;;;;;;4896042;29;19964;-89
2023/06/22 02:39:24;;;;;;;;;;;28.40;52.90;;;;;;4897724;29;19916;-90
2023/06/22 02:41:50;;;;;;;;;;;28.40;53.00;;;;;;4871722;29;19951;-90
2023/06/22 02:44:15;;;;;;;;;;;28.40;53.00;;;;;;4883349;29;19947;-90
2023/06/22 02:46:44;;;;;;;;;;;28.40;53.00;;;;;;4880318;29;20011;-90
2023/06/22 02:49:14;;;;;;;;;;;28.30;52.90;;;;;;4887353;29;20476;-90
2023/06/22 02:51:42;;;;;;;;;;;28.30;52.90;;;;;;4881832;29;19977;-90
2023/06/22 02:54:08;;;;;;;;;;;28.40;53.00;;;;;;4886961;29;20124;-90
2023/06/22 02:56:33;;;;;;;;;;;28.30;53.00;;;;;;4883161;29;20083;-90
2023/06/22 02:59:02;;;;;;;;;;;28.30;53.00;;;;;;4884231;29;19912;-90
2023/06/22 03:01:30;;;;;;;;;;;28.30;53.00;;;;;;4881991;29;19912;-89
2023/06/22 03:03:58;;;;;;;;;;;28.30;53.00;;;;;;4887055;29;19911;-90
2023/06/22 03:06:28;;;;;;;;;;;28.30;53.10;;;;;;4871717;29;19991;-90
2023/06/22 03:08:59;;;;;;;;;;;28.30;53.10;;;;;;4882245;29;19911;-90
2023/06/22 03:11:24;;;;;;;;;;;28.20;53.10;;;;;;4876760;29;20240;-90
2023/06/22 03:13:52;;;;;;;;;;;28.30;53.10;;;;;;4881231;29;19911;-89
2023/06/22 03:16:20;;;;;;;;;;;28.20;53.00;;;;;;4892752;29;19930;-90
2023/06/22 03:18:46;;;;;;;;;;;28.20;53.10;;;;;;4880208;29;19912;-89
2023/06/22 03:21:11;;;;;;;;;;;28.20;53.00;;;;;;4903183;29;19911;-89
2023/06/22 03:23:39;;;;;;;;;;;28.20;53.00;;;;;;4888199;29;19912;-89
2023/06/22 03:26:05;;;;;;;;;;;28.20;53.00;;;;;;4886310;29;19911;-90
2023/06/22 03:28:31;;;;;;;;;;;28.20;53.00;;;;;;4879109;29;20189;-90
2023/06/22 03:30:59;;;;;;;;;;;28.20;53.00;;;;;;4882362;29;20063;-89
2023/06/22 03:33:25;;;;;;;;;;;28.20;53.10;;;;;;4888970;29;20177;-89
2023/06/22 03:35:51;;;;;;;;;;;28.20;53.10;;;;;;4886507;29;20295;-90
2023/06/22 03:38:17;;;;;;;;;;;28.20;53.10;;;;;;4880443;29;20323;-89
2023/06/22 03:40:42;;;;;;;;;;;28.20;53.10;;;;;;4879861;29;20011;-90
2023/06/22 03:43:08;;;;;;;;;;;28.20;53.50;;;;;;4887898;29;20232;-90
2023/06/22 03:45:36;;;;;;;;;;;28.10;53.10;;;;;;4883444;29;19912;-89
2023/06/22 03:48:05;;;;;;;;;;;28.10;53.20;;;;;;4878817;29;19943;-90
2023/06/22 03:50:30;;;;;;;;;;;28.10;53.30;;;;;;4889796;29;19924;-90
2023/06/22 03:52:56;;;;;;;;;;;28.10;53.30;;;;;;4904086;29;19912;-90
2023/06/22 03:55:22;;;;;;;;;;;28.10;53.40;;;;;;4894718;29;19942;-90
2023/06/22 03:57:47;;;;;;;;;;;28.10;53.50;;;;;;4886639;29;19911;-90
2023/06/22 04:00:13;;;;;;;;;;;28.10;53.50;;;;;;4892986;29;19919;-90
2023/06/22 04:02:45;;;;;;;;;;;28.10;53.50;;;;;;4900979;29;19971;-90
2023/06/22 04:05:14;;;;;;;;;;;28.10;53.80;;;;;;4895195;29;19963;-90
2023/06/22 04:07:39;;;;;;;;;;;28.00;54.20;;;;;;4888383;29;19975;-90
2023/06/22 04:10:05;;;;;;;;;;;28.00;53.70;;;;;;4878247;29;19911;-90
2023/06/22 04:12:31;;;;;;;;;;;28.00;53.80;;;;;;4887861;29;20173;-90
2023/06/22 04:14:59;;;;;;;;;;;28.00;53.70;;;;;;4888452;29;19991;-90
2023/06/22 04:17:25;;;;;;;;;;;28.10;53.80;;;;;;4890607;29;20385;-90
2023/06/22 04:19:51;;;;;;;;;;;28.10;53.90;;;;;;4871594;29;20219;-89
2023/06/22 04:22:16;;;;;;;;;;;28.10;53.90;;;;;;4886501;29;19912;-90
2023/06/22 04:24:42;;;;;;;;;;;28.10;53.80;;;;;;4884348;29;19921;-91
2023/06/22 04:27:07;;;;;;;;;;;28.00;53.80;;;;;;4890608;29;20208;-90
2023/06/22 04:29:33;;;;;;;;;;;28.10;53.80;;;;;;4888612;29;19923;-90
2023/06/22 04:32:02;;;;;;;;;;;28.10;53.80;;;;;;4895823;29;19915;-91
2023/06/22 04:34:37;;;;;;;;;;;28.00;53.80;;;;;;4881744;29;20279;-90
2023/06/22 04:37:03;;;;;;;;;;;28.00;53.80;;;;;;4895791;29;20302;-90
2023/06/22 04:39:29;;;;;;;;;;;28.10;53.90;;;;;;4894606;29;20379;-90
2023/06/22 04:41:59;;;;;;;;;;;28.00;53.80;;;;;;4887743;29;20001;-90
2023/06/22 04:44:25;;;;;;;;;;;28.10;53.80;;;;;;4895225;29;20222;-90
2023/06/22 04:47:01;;;;;;;;;;;28.10;53.80;;;;;;4905816;29;19911;-90
2023/06/22 04:49:34;;;;;;;;;;;28.10;53.80;;;;;;4886381;29;19930;-90
2023/06/22 04:52:03;;;;;;;;;;;28.00;53.70;;;;;;4886484;29;20017;-90
2023/06/22 04:54:32;;;;;;;;;;;28.00;53.70;;;;;;4896032;29;19912;-90
2023/06/22 04:56:59;;;;;;;;;;;28.00;53.70;;;;;;4879859;29;19911;-90
2023/06/22 04:59:27;;;;;;;;;;;28.00;53.90;;;;;;4904269;29;19943;-90
2023/06/22 05:02:13;;;;;;;;;;;28.00;54.00;;;;;;4906387;29;19937;-91
2023/06/22 05:04:39;;;;;;;;;;;27.90;54.00;;;;;;4884643;29;19916;-91
2023/06/22 05:07:05;;;;;;;;;;;27.90;54.00;;;;;;4883357;29;19912;-91
2023/06/22 05:09:30;;;;;;;;;;;28.00;53.90;;;;;;4884205;29;19916;-91
2023/06/22 05:12:01;;;;;;;;;;;28.00;54.00;;;;;;4884322;29;20192;-91
2023/06/22 05:14:27;;;;;;;;;;;28.00;53.80;;;;;;4886446;29;19926;-91
2023/06/22 05:16:53;;;;;;;;;;;28.00;53.80;;;;;;4884339;29;19920;-91
2023/06/22 05:19:18;;;;;;;;;;;28.00;53.80;;;;;;4893232;29;19912;-90
2023/06/22 05:21:45;;;;;;;;;;;28.00;53.80;;;;;;4876855;29;19923;-91
2023/06/22 05:24:11;;;;;;;;;;;28.00;53.80;;;;;;4877683;29;19942;-91
2023/06/22 05:26:37;;;;;;;;;;;27.90;53.90;;;;;;4875588;29;20284;-92
2023/06/22 05:29:05;;;;;;;;;;;27.90;54.00;;;;;;4868206;29;19971;-91
2023/06/22 05:31:30;;;;;;;;;;;28.00;54.10;;;;;;4880238;29;20211;-91
2023/06/22 05:33:56;;;;;;;;;;;28.00;54.10;;;;;;4894852;29;19911;-91
2023/06/22 05:36:25;;;;;;;;;;;28.00;54.20;;;;;;4882918;29;20014;-91
2023/06/22 05:38:51;;;;;;;;;;;28.00;54.20;;;;;;4884068;29;19978;-91
2023/06/22 05:41:16;;;;;;;;;;;28.00;54.20;;;;;;4880573;29;19939;-91
2023/06/22 05:43:42;;;;;;;;;;;28.10;54.30;;;;;;4873575;29;20493;-92
2023/06/22 05:46:07;;;;;;;;;;;28.10;54.20;;;;;;4883942;29;19927;-91
2023/06/22 05:48:33;;;;;;;;;;;28.10;54.20;;;;;;4871737;29;19947;-91
2023/06/22 05:50:58;;;;;;;;;;;28.10;54.20;;;;;;4878201;29;19916;-91
2023/06/22 05:53:24;;;;;;;;;;;28.10;54.20;;;;;;4872521;29;19935;-91
2023/06/22 05:55:49;;;;;;;;;;;28.10;54.10;;;;;;4874140;29;20263;-91
2023/06/22 05:58:15;;;;;;;;;;;28.10;54.10;;;;;;4874930;29;19912;-91
2023/06/22 06:00:41;;;;;;;;;;;28.10;54.10;;;;;;4873971;29;19907;-91
2023/06/22 06:03:08;;;;;;;;;;;28.10;54.10;;;;;;4873620;29;20013;-91
2023/06/22 06:05:33;;;;;;;;;;;28.10;54.10;;;;;;4871109;29;19919;-91
2023/06/22 06:08:00;;;;;;;;;;;28.10;54.10;;;;;;4873857;29;20101;-91
2023/06/22 06:10:34;;;;;;;;;;;28.10;54.10;;;;;;4872763;29;19919;-91
2023/06/22 06:13:09;;;;;;;;;;;28.10;54.10;;;;;;4876137;29;19911;-91
2023/06/22 06:15:38;;;;;;;;;;;28.10;54.10;;;;;;4872532;29;19912;-91
2023/06/22 06:18:07;;;;;;;;;;;28.10;54.00;;;;;;4874003;29;19911;-91
2023/06/22 06:20:33;;;;;;;;;;;28.10;54.00;;;;;;4874736;29;19923;-91
2023/06/22 06:23:01;;;;;;;;;;;28.10;54.10;;;;;;4874648;29;19912;-91
2023/06/22 06:25:27;;;;;;;;;;;28.20;54.20;;;;;;4872095;29;19919;-91
2023/06/22 06:27:58;;;;;;;;;;;28.20;54.20;;;;;;4886814;29;19908;-92
2023/06/22 06:30:24;;;;;;;;;;;28.20;54.10;;;;;;4899951;29;19963;-91
2023/06/22 06:32:50;;;;;;;;;;;28.20;54.10;;;;;;4884317;29;20021;-91
2023/06/22 06:35:18;;;;;;;;;;;28.20;54.10;;;;;;4880741;29;19911;-91
2023/06/22 06:37:55;;;;;;;;;;;28.20;54.20;;;;;;4870494;29;20433;-91
2023/06/22 06:40:26;;;;;;;;;;;28.20;54.20;;;;;;4880514;29;19920;-91
2023/06/22 06:42:52;;;;;;;;;;;28.20;54.20;;;;;;4869808;29;20292;-91
2023/06/22 06:45:25;;;;;;;;;;;28.20;54.30;;;;;;4873752;29;19946;-91
2023/06/22 06:47:54;;;;;;;;;;;28.20;54.30;;;;;;4865871;29;19990;-91
2023/06/22 06:50:19;;;;;;;;;;;28.10;54.50;;;;;;4871419;29;19945;-91
2023/06/22 06:52:50;;;;;;;;;;;28.20;54.50;;;;;;4876243;29;20311;-91
2023/06/22 06:55:15;;;;;;;;;;;28.20;54.50;;;;;;4868783;29;19911;-91
2023/06/22 06:57:47;;;;;;;;;;;28.20;54.60;;;;;;4868885;29;19954;-91
2023/06/22 07:00:13;;;;;;;;;;;28.20;54.60;;;;;;4868825;29;20038;-91
2023/06/22 07:02:42;;;;;;;;;;;28.10;54.60;;;;;;4868062;29;19994;-91
2023/06/22 07:05:08;;;;;;;;;;;28.10;54.60;;;;;;4875743;29;19943;-91
2023/06/22 07:07:34;;;;;;;;;;;28.10;54.70;;;;;;4866269;29;20078;-92
2023/06/22 07:10:00;;;;;;;;;;;28.10;54.70;;;;;;4869166;29;20184;-91
2023/06/22 07:12:25;;;;;;;;;;;28.10;54.80;;;;;;4872006;29;20043;-91
2023/06/22 07:14:51;;;;;;;;;;;28.10;54.90;;;;;;4871709;29;20451;-92
2023/06/22 07:17:17;;;;;;;;;;;28.10;54.90;;;;;;4879342;29;19912;-91
2023/06/22 07:19:43;;;;;;;;;;;28.10;55.10;;;;;;4871075;29;19943;-91
2023/06/22 07:22:11;;;;;;;;;;;28.10;55.10;;;;;;4871083;29;19924;-91
2023/06/22 07:24:37;;;;;;;;;;;28.10;55.20;;;;;;4869756;29;19974;-91
2023/06/22 07:27:06;;;;;;;;;;;28.10;55.30;;;;;;4872127;29;20010;-91
2023/06/22 07:29:36;;;;;;;;;;;28.10;55.30;;;;;;4870231;29;19990;-90
2023/06/22 07:32:04;;;;;;;;;;;28.10;55.70;;;;;;4866618;29;19968;-91
2023/06/22 07:34:30;;;;;;;;;;;28.00;55.70;;;;;;4871101;29;19912;-91
2023/06/22 07:36:56;;;;;;;;;;;28.10;55.60;;;;;;4870751;29;20226;-90
2023/06/22 07:39:26;;;;;;;;;;;28.10;55.60;;;;;;4868935;29;19916;-91
2023/06/22 07:41:51;;;;;;;;;;;28.10;55.90;;;;;;4877796;29;19912;-91
2023/06/22 07:44:17;;;;;;;;;;;28.10;55.70;;;;;;4871884;29;20121;-90
2023/06/22 07:46:45;;;;;;;;;;;28.10;55.50;;;;;;4869089;29;19983;-90
2023/06/22 07:49:14;;;;;;;;;;;28.10;55.40;;;;;;4866160;29;20275;-90
2023/06/22 07:51:42;;;;;;;;;;;28.00;55.30;;;;;;4870191;29;19974;-90
2023/06/22 07:54:11;;;;;;;;;;;28.10;55.30;;;;;;4871007;29;20148;-90
2023/06/22 07:56:39;;;;;;;;;;;28.10;55.50;;;;;;4872878;29;19912;-91
2023/06/22 07:59:05;;;;;;;;;;;28.10;55.50;;;;;;4859450;29;19916;-90
2023/06/22 08:01:31;;;;;;;;;;;28.10;55.50;;;;;;4862979;29;19990;-90
2023/06/22 08:03:59;;;;;;;;;;;28.10;55.80;;;;;;4867883;29;20534;-90
2023/06/22 08:06:25;;;;;;;;;;;28.10;56.00;;;;;;4867070;29;20169;-89
2023/06/22 08:08:52;;;;;;;;;;;28.10;56.60;;;;;;4877844;29;19911;-89
2023/06/22 08:11:18;;;;;;;;;;;28.10;55.80;;;;;;4870167;29;19916;-90
2023/06/22 08:13:50;;;;;;;;;;;28.10;55.40;;;;;;4878762;29;19912;-89
2023/06/22 08:16:15;;;;;;;;;;;28.10;55.30;;;;;;4861172;29;20516;-89
2023/06/22 08:18:41;;;;;;;;;;;28.10;55.30;;;;;;4874567;29;19911;-89
2023/06/22 08:21:06;;;;;;;;;;;28.10;55.30;;;;;;4868757;29;20018;-89
2023/06/22 08:23:32;;;;;;;;;;;28.20;55.60;;;;;;4865868;29;19970;-89
2023/06/22 08:25:57;;;;;;;;;;;28.20;55.10;;;;;;4870250;29;19912;-90
2023/06/22 08:28:23;;;;;;;;;;;28.20;56.60;;;;;;4878103;29;19956;-90
2023/06/22 08:30:52;;;;;;;;;;;28.20;55.80;;;;;;4863932;29;20459;-90
2023/06/22 08:33:17;;;;;;;;;;;28.20;55.70;;;;;;4872573;29;20060;-89
2023/06/22 08:35:46;;;;;;;;;;;28.30;55.40;;;;;;4875295;29;20322;-89
2023/06/22 08:38:15;;;;;;;;;;;28.30;55.70;;;;;;4874098;29;19911;-89
2023/06/22 08:40:41;;;;;;;;;;;28.40;55.40;;;;;;4883683;29;20105;-89
2023/06/22 08:43:06;;;;;;;;;;;28.50;55.40;;;;;;4873648;29;20066;-90
2023/06/22 08:45:31;;;;;;;;;;;28.60;55.40;;;;;;4870973;29;20276;-89
2023/06/22 08:48:00;;;;;;;;;;;28.60;57.30;;;;;;4872049;29;19923;-89
2023/06/22 08:50:26;;;;;;;;;;;28.50;55.80;;;;;;4877771;29;19979;-89
2023/06/22 08:52:52;;;;;;;;;;;28.60;55.70;;;;;;4861677;29;19912;-89
2023/06/22 08:55:20;;;;;;;;;;;28.60;55.70;;;;;;4864673;29;20167;-89
2023/06/22 08:57:46;;;;;;;;;;;28.70;55.80;;;;;;4883156;29;20098;-89
2023/06/22 09:00:19;;;;;;;;;;;28.70;56.30;;;;;;4881585;29;20084;-90
2023/06/22 09:02:45;;;;;;;;;;;28.70;56.10;;;;;;4872394;29;19948;-90
2023/06/22 09:05:14;;;;;;;;;;;28.80;55.90;;;;;;4875547;29;19963;-89
2023/06/22 09:07:40;;;;;;;;;;;28.80;55.80;;;;;;4872714;29;19912;-90
2023/06/22 09:10:18;;;;;;;;;;;28.90;56.60;;;;;;4872826;29;19911;-89
2023/06/22 09:12:43;;;;;;;;;;;29.00;59.00;;;;;;4870930;29;20377;-91
2023/06/22 09:15:10;;;;;;;;;;;28.90;57.10;;;;;;4871140;29;20306;-90
2023/06/22 09:17:38;;;;;;;;;;;29.00;58.30;;;;;;4871567;29;19911;-90
2023/06/22 09:20:05;;;;;;;;;;;29.00;57.90;;;;;;4881136;29;19919;-90
2023/06/22 09:22:31;;;;;;;;;;;29.10;58.10;;;;;;4873174;29;20296;-90
2023/06/22 09:24:59;;;;;;;;;;;29.10;59.10;;;;;;4871597;29;19912;-90
2023/06/22 09:27:28;;;;;;;;;;;29.20;58.70;;;;;;4873966;29;20238;-90
2023/06/22 09:29:54;;;;;;;;;;;29.20;58.30;;;;;;4871309;29;20321;-90
2023/06/22 09:32:19;;;;;;;;;;;29.30;57.90;;;;;;4869358;29;19916;-90
2023/06/22 09:34:45;;;;;;;;;;;29.50;58.00;;;;;;4871664;29;20269;-90
2023/06/22 09:37:10;;;;;;;;;;;29.60;58.10;;;;;;4872249;29;19912;-90
2023/06/22 09:39:36;;;;;;;;;;;29.70;57.90;;;;;;4869423;29;19919;-90
2023/06/22 09:42:02;;;;;;;;;;;29.80;57.30;;;;;;4877409;29;19916;-91
2023/06/22 09:44:31;;;;;;;;;;;29.80;57.00;;;;;;4871355;29;19926;-90
2023/06/22 09:46:56;;;;;;;;;;;29.90;56.70;;;;;;4870351;29;20386;-91
2023/06/22 09:49:22;;;;;;;;;;;29.90;57.00;;;;;;4879569;29;20060;-90
2023/06/22 09:51:49;;;;;;;;;;;30.00;56.70;;;;;;4869035;29;20018;-90
2023/06/22 09:54:18;;;;;;;;;;;30.00;56.70;;;;;;4883566;29;20103;-90
2023/06/22 09:56:46;;;;;;;;;;;30.00;57.00;;;;;;4872404;29;19912;-91
2023/06/22 09:59:12;;;;;;;;;;;30.10;56.70;;;;;;4870721;29;19976;-91
2023/06/22 10:01:42;;;;;;;;;;;30.10;56.50;;;;;;4884613;29;19908;-90
2023/06/22 10:04:07;;;;;;;;;;;30.10;56.80;;;;;;4889459;29;19916;-90
2023/06/22 10:06:36;;;;;;;;;;;30.00;56.60;;;;;;4883014;29;20295;-91
2023/06/22 10:09:01;;;;;;;;;;;30.00;57.00;;;;;;4869842;29;20111;-90
2023/06/22 10:11:30;;;;;;;;;;;30.00;57.20;;;;;;4878202;29;20072;-91
2023/06/22 10:13:58;;;;;;;;;;;30.00;56.70;;;;;;4869601;29;19920;-91
2023/06/22 10:16:29;;;;;;;;;;;30.00;56.60;;;;;;4872745;29;20463;-89
2023/06/22 10:18:55;;;;;;;;;;;30.00;56.70;;;;;;4875708;29;19912;-91
2023/06/22 10:21:28;;;;;;;;;;;30.00;56.50;;;;;;4879953;29;20099;-91
2023/06/22 10:23:54;;;;;;;;;;;30.10;56.50;;;;;;4869063;29;20154;-90
2023/06/22 10:26:19;;;;;;;;;;;30.10;56.50;;;;;;4873091;29;20011;-91
2023/06/22 10:28:45;;;;;;;;;;;30.10;56.70;;;;;;4867950;29;20237;-91
2023/06/22 10:31:10;;;;;;;;;;;30.10;56.40;;;;;;4863138;29;19916;-90
2023/06/22 10:33:41;;;;;;;;;;;30.10;56.70;;;;;;4878575;29;19938;-91
2023/06/22 10:36:06;;;;;;;;;;;30.10;57.10;;;;;;4868379;29;20208;-91
2023/06/22 10:38:32;;;;;;;;;;;30.10;56.60;;;;;;4868418;29;20185;-91
2023/06/22 10:41:01;;;;;;;;;;;30.10;56.50;;;;;;4867051;29;19923;-91
2023/06/22 10:43:29;;;;;;;;;;;30.10;56.50;;;;;;4861997;29;20022;-91
2023/06/22 10:45:58;;;;;;;;;;;30.10;56.50;;;;;;4870646;29;19951;-91
2023/06/22 10:48:24;;;;;;;;;;;30.10;56.50;;;;;;4868708;29;19912;-90
2023/06/22 10:50:49;;;;;;;;;;;30.10;56.60;;;;;;4864766;29;19946;-91
2023/06/22 10:53:15;;;;;;;;;;;30.10;56.50;;;;;;4868230;29;19978;-90
2023/06/22 10:55:40;;;;;;;;;;;30.00;56.40;;;;;;4873039;29;20065;-91
2023/06/22 10:58:06;;;;;;;;;;;30.00;57.00;;;;;;4871236;29;19920;-91
2023/06/22 11:00:32;;;;;;;;;;;30.00;56.70;;;;;;4864499;29;20292;-90
2023/06/22 11:02:58;;;;;;;;;;;30.00;56.90;;;;;;4870827;29;19923;-91
2023/06/22 11:05:23;;;;;;;;;;;29.90;56.90;;;;;;4871536;29;20237;-91
2023/06/22 11:07:49;;;;;;;;;;;29.90;58.20;;;;;;4867263;29;19928;-90
2023/06/22 11:10:15;;;;;;;;;;;29.90;57.70;;;;;;4866690;29;19951;-91
2023/06/22 11:12:43;;;;;;;;;;;29.90;58.10;;;;;;4867081;29;19983;-90
2023/06/22 11:15:09;;;;;;;;;;;29.90;58.60;;;;;;4866917;29;19998;-90
2023/06/22 11:17:35;;;;;;;;;;;29.90;58.10;;;;;;4880521;29;20010;-90
2023/06/22 11:20:10;;;;;;;;;;;29.80;59.30;;;;;;4871226;29;19912;-90
2023/06/22 11:22:42;;;;;;;;;;;29.80;59.50;;;;;;4876933;29;19912;-90
2023/06/22 11:25:16;;;;;;;;;;;29.70;60.50;;;;;;4871004;29;20115;-90
2023/06/22 11:27:48;;;;;;;;;;;29.70;59.90;;;;;;4873912;29;20170;-89
2023/06/22 11:30:14;;;;;;;;;;;29.70;59.00;;;;;;4876776;29;19970;-89
2023/06/22 11:32:39;;;;;;;;;;;29.70;58.60;;;;;;4870579;29;20014;-89
2023/06/22 11:35:05;;;;;;;;;;;29.70;60.90;;;;;;4874557;29;20026;-90
2023/06/22 11:37:31;;;;;;;;;;;29.60;59.90;;;;;;4873694;29;19912;-90
2023/06/22 11:39:59;;;;;;;;;;;29.60;59.70;;;;;;4868553;29;20182;-90
2023/06/22 11:42:25;;;;;;;;;;;29.60;59.10;;;;;;4870759;29;20291;-89
2023/06/22 11:44:53;;;;;;;;;;;29.60;60.80;;;;;;4882135;29;19994;-89
2023/06/22 11:47:19;;;;;;;;;;;29.60;60.50;;;;;;4881074;29;19978;-89
2023/06/22 11:49:47;;;;;;;;;;;29.50;59.80;;;;;;4870896;29;19919;-89
2023/06/22 11:52:13;;;;;;;;;;;29.50;59.50;;;;;;4870382;29;20056;-89
2023/06/22 11:54:47;;;;;;;;;;;29.50;62.90;;;;;;4867913;29;20002;-89
2023/06/22 11:57:13;;;;;;;;;;;29.50;64.10;;;;;;4875895;29;19916;-88
2023/06/22 11:59:38;;;;;;;;;;;29.50;65.50;;;;;;4866151;29;19915;-89
2023/06/22 12:02:05;;;;;;;;;;;29.40;65.50;;;;;;4872037;29;19927;-88
2023/06/22 12:04:31;;;;;;;;;;;29.40;66.70;;;;;;4873276;29;20166;-88
2023/06/22 12:06:58;;;;;;;;;;;29.40;65.90;;;;;;4868719;29;20216;-88
2023/06/22 12:09:23;;;;;;;;;;;29.30;63.80;;;;;;4872810;29;20146;-89
2023/06/22 12:11:49;;;;;;;;;;;29.30;64.80;;;;;;4874347;29;20239;-89
2023/06/22 12:14:14;;;;;;;;;;;29.30;62.50;;;;;;4871753;29;20014;-88
2023/06/22 12:16:40;;;;;;;;;;;29.30;61.70;;;;;;4873314;29;20204;-88
2023/06/22 12:19:05;;;;;;;;;;;29.30;62.10;;;;;;4875477;29;20055;-90
2023/06/22 12:21:31;;;;;;;;;;;29.30;64.00;;;;;;4867443;29;20102;-88
2023/06/22 12:23:56;;;;;;;;;;;29.20;62.20;;;;;;4889429;29;20219;-88
2023/06/22 12:26:25;;;;;;;;;;;29.30;64.30;;;;;;4875648;29;19974;-88
2023/06/22 12:28:50;;;;;;;;;;;29.20;68.20;;;;;;4882707;29;19928;-89
2023/06/22 12:31:16;;;;;;;;;;;29.10;65.50;;;;;;4878439;29;19930;-88
2023/06/22 12:33:42;;;;;;;;;;;29.10;65.70;;;;;;4892004;29;19928;-89
2023/06/22 12:36:12;;;;;;;;;;;29.10;66.10;;;;;;4890474;29;19927;-89
2023/06/22 12:38:37;;;;;;;;;;;29.10;68.10;;;;;;4880019;29;20442;-88
2023/06/22 12:41:06;;;;;;;;;;;29.10;67.10;;;;;;4880001;29;19974;-87
2023/06/22 12:43:34;;;;;;;;;;;29.10;67.50;;;;;;4880073;29;20523;-87
2023/06/22 12:46:00;;;;;;;;;;;29.10;68.80;;;;;;4880136;29;19935;-88
2023/06/22 12:48:27;;;;;;;;;;;29.10;68.20;;;;;;4882592;29;20417;-88
2023/06/22 12:50:52;;;;;;;;;;;29.00;69.40;;;;;;4883265;29;19915;-88
2023/06/22 12:53:23;;;;;;;;;;;29.10;69.80;;;;;;4872087;29;19911;-88
2023/06/22 12:55:49;;;;;;;;;;;29.10;69.50;;;;;;4871473;29;20037;-87
2023/06/22 12:58:14;;;;;;;;;;;29.10;69.70;;;;;;4879662;29;19990;-88
2023/06/22 13:00:40;;;;;;;;;;;29.00;70.30;;;;;;4878456;29;20419;-88
2023/06/22 13:03:05;;;;;;;;;;;29.10;69.20;;;;;;4875512;29;19915;-88
2023/06/22 13:05:36;;;;;;;;;;;29.10;69.00;;;;;;4873282;29;19979;-88
2023/06/22 13:08:04;;;;;;;;;;;29.10;69.30;;;;;;4869688;29;20285;-88
2023/06/22 13:10:30;;;;;;;;;;;29.10;69.10;;;;;;4870106;29;19916;-88
2023/06/22 13:13:00;;;;;;;;;;;29.20;71.50;;;;;;4871583;29;19970;-88
2023/06/22 13:15:29;;;;;;;;;;;29.10;71.00;;;;;;4869969;29;19915;-87
2023/06/22 13:17:58;;;;;;;;;;;29.10;71.40;;;;;;4867716;29;20376;-88
2023/06/22 13:20:23;;;;;;;;;;;29.00;72.80;;;;;;4865924;29;20351;-88
2023/06/22 13:22:49;;;;;;;;;;;29.00;71.90;;;;;;4870921;29;19920;-88
2023/06/22 13:25:18;;;;;;;;;;;29.10;73.70;;;;;;4878961;29;20330;-88
2023/06/22 13:27:50;;;;;;;;;;;29.10;75.20;;;;;;4883394;29;19913;-88
2023/06/22 13:30:16;;;;;;;;;;;29.00;73.90;;;;;;4883721;29;19990;-88
2023/06/22 13:32:44;;;;;;;;;;;29.10;73.50;;;;;;4868126;29;19987;-88
2023/06/22 13:35:10;;;;;;;;;;;29.10;73.50;;;;;;4871476;29;19912;-88
2023/06/22 13:37:36;;;;;;;;;;;28.90;77.10;;;;;;4870438;29;19951;-88
2023/06/22 13:40:08;;;;;;;;;;;28.80;76.40;;;;;;4880469;29;20054;-89
2023/06/22 13:42:33;;;;;;;;;;;28.90;77.10;;;;;;4861423;29;20273;-88
2023/06/22 13:45:03;;;;;;;;;;;28.90;76.20;;;;;;4878581;29;19922;-89
2023/06/22 13:47:31;;;;;;;;;;;29.10;76.00;;;;;;4864680;29;20014;-90
2023/06/22 13:49:57;;;;;;;;;;;29.10;76.70;;;;;;4869255;29;20245;-89
2023/06/22 13:52:29;;;;;;;;;;;28.90;77.30;;;;;;4868976;29;19916;-88
2023/06/22 13:54:54;;;;;;;;;;;29.00;77.10;;;;;;4867435;29;20006;-89
2023/06/22 13:57:23;;;;;;;;;;;29.00;76.70;;;;;;4881798;29;20375;-89
2023/06/22 13:59:49;;;;;;;;;;;29.10;76.60;;;;;;4871992;29;20232;-90
2023/06/22 14:02:18;;;;;;;;;;;29.10;76.40;;;;;;4874195;29;20030;-88
2023/06/22 14:04:50;;;;;;;;;;;29.20;76.50;;;;;;4866537;29;19978;-89
2023/06/22 14:07:15;;;;;;;;;;;29.20;76.40;;;;;;4868281;29;19923;-89
2023/06/22 14:09:41;;;;;;;;;;;29.20;76.00;;;;;;4862622;29;20135;-89
2023/06/22 14:12:07;;;;;;;;;;;29.20;76.20;;;;;;4871350;29;20170;-89
2023/06/22 14:14:35;;;;;;;;;;;29.30;75.70;;;;;;4868355;29;19916;-89
2023/06/22 14:17:01;;;;;;;;;;;29.30;75.60;;;;;;4881375;29;19920;-89